Francisco Romero

Scout - Millonarios
17 Feb 2028
Thursday
Process

Personality

Adaptability (2) Ambition (3) Controversy (7) Loyalty (19) Pressure (8) Professionalism (18) Sportsmanship (19) Temperament (4)

Profile

Coaching Style Democratic
License Continental B
Determination 7
Man Management 7
Motivating 10
Discipline 7
Job Satisfaction
100%
Fatigue
0%
Role Scout
Wage 79.9K p/w
Contract 14.03.2028

Performance

Behaviour Good
Training Effectiveness
48%
Player Development
65%
Injury Prevention
65%
Tactical Implementation
35%

Recent Events

Contract negotiation started now
Attended a recruitment meeting now
Recommended a transfer target now
Contract negotiation started 7d ago
Contract negotiation started 7d ago
Contract negotiation started 7d ago
Contract negotiation started 7d ago
Contract negotiation started 7d ago

Currently Monitoring

108
Player Club Status Ability Confidence Watched Last Observed Latest Vote
David Valencia Alianza Petrolera Active 125 / 120 40% 1 30.11.2027 -
Diego Vargas San Marcos de Arica Active 88 / 90 40% 1 30.11.2027 -
Kevin Tamayo Leones Active 116 / 105 69% 1 05.07.2027 Approve
Corey Addai Stockport County Active 96 / 105 40% 1 31.05.2027 -
Daniel Iversen Preston Active 142 / 120 40% 1 31.05.2027 -
Aidan Morris Middlesbrough Active 122 / 127 40% 2 28.05.2027 -
Max Bird Birmingham Active 132 / 141 40% 2 28.05.2027 -
Adilson Malanda Middlesbrough Active 126 / 120 40% 1 28.05.2027 -
Ryan Sessegnon Fulham Active 141 / 159 40% 2 27.05.2027 -
Oliver Skipp Leicester City Active 122 / 144 40% 1 27.05.2027 -
Brian De Keersmaecker Oxford United Active 114 / 112 40% 1 27.05.2027 -
Ethan Galbraith Swansea City Active 123 / 118 40% 3 26.05.2027 -
Lewis Bate Stockport County Active 119 / 130 40% 1 26.05.2027 -
Harry Clarke Preston Active 118 / 122 40% 4 22.05.2027 -
Juanlu Bournemouth Active 157 / 160 40% 2 22.05.2027 -
Leif Davis Ipswich Town Active 139 / 138 40% 1 22.05.2027 -
Quinten Timber Crystal Palace Active 158 / 139 40% 2 18.05.2027 -
Shea Charles Southampton Active 148 / 127 40% 1 18.05.2027 -
Derry Murkin Derby County Active 120 / 142 40% 1 16.05.2027 -
Jacques Ekomié Wrexham Active 123 / 128 40% 2 15.05.2027 -
Adam Wharton Crystal Palace Active 149 / 152 40% 2 13.05.2027 -
Yehor Yarmoliuk Brentford Active 159 / 146 40% 1 13.05.2027 -
Alessandro Buongiorno Sassuolo Active 148 / 151 40% 2 09.05.2027 -
Noah Sadiki Sunderland Active 133 / 148 40% 2 09.05.2027 -
Habib Diarra Sunderland Active 133 / 136 40% 1 07.05.2027 -
Kristoffer Lund Birmingham Active 119 / 116 40% 1 04.05.2027 -
Williams Manyama SuperSport United Active 117 / 121 40% 1 24.04.2027 -
Will Fish Cardiff City Active 111 / 126 40% 1 24.04.2027 -
Kellen Fisher Norwich City Active 120 / 113 40% 1 24.04.2027 -
Nathan Collins Brentford Active 144 / 152 40% 1 14.04.2027 -
Alfie Doughty Millwall Active 132 / 134 40% 1 11.04.2027 -
Darlin Yongwa Norwich City Active 121 / 112 40% 1 11.04.2027 -
Rubén Duarte Legia Active 140 / 145 40% 1 30.11.2026 -
Ross McCrorie Bristol City Active 122 / 114 40% 1 30.11.2026 -
Santiago González Tigre Active 126 / 119 40% 3 28.11.2026 -
Rodrigo Herrera Newell's Old Boys Active 116 / 127 40% 1 28.11.2026 -
Brodie Spencer Oxford United Active 120 / 115 40% 1 27.11.2026 -
Stefano Moreyra Independiente Rivadavia Active 115 / 125 40% 1 27.11.2026 -
Ignacio Rodríguez Racing Club Active 129 / 126 40% 1 27.11.2026 -
Lukáš Červ Viktoria Plzen Active 128 / 118 40% 1 27.11.2026 -
Facundo Zabala Independiente Active 119 / 128 40% 1 27.11.2026 -
Emanuel Coronel Rosario Central Active 125 / 129 40% 3 26.11.2026 -
Iván Villalba Independiente Rivadavia Active 124 / 112 40% 1 26.11.2026 -
César Ibáñez Huracán Active 124 / 118 40% 4 24.11.2026 -
Martín Garay Tigre Active 115 / 125 40% 1 24.11.2026 -
Martín Ortega Newell's Old Boys Active 120 / 113 40% 2 23.11.2026 -
Joaquim Tigres Active 134 / 121 40% 3 22.11.2026 -
Lucas Arce CFR Cluj Active 126 / 115 40% 1 22.11.2026 -
Adrián Sánchez Belgrano Active 121 / 122 40% 2 21.11.2026 -
Francisco Álvarez Argentinos Juniors Active 120 / 129 40% 2 21.11.2026 -
Pedro Vite Pumas UNAM Active 119 / 114 40% 3 21.11.2026 -
Alan Cervantes Club America Active 126 / 130 40% 1 21.11.2026 -
Lucas Souto Defensa y Justicia Active 126 / 120 40% 3 19.11.2026 -
Jackson Porozo Tijuana Active 111 / 107 40% 2 19.11.2026 -
Pablo Monroy Pumas UNAM Active 125 / 117 40% 2 19.11.2026 -
Alejandro Gómez Tijuana Active 118 / 127 40% 1 19.11.2026 -
Cristian Calderón Pumas UNAM Active 132 / 126 40% 1 19.11.2026 -
Willer Ditta Cruz Azul Active 143 / 145 40% 1 19.11.2026 -
Mandla Erasmus SuperSport United Active 131 / 117 40% 1 16.11.2026 -
Ramón Juárez Club America Active 133 / 131 40% 2 15.11.2026 -
Emanuel Mammana Vélez Active 137 / 123 40% 1 15.11.2026 -
Erick Reyes Toluca Active 135 / 131 40% 7 14.11.2026 -
Bruno Méndez Toluca Active 122 / 124 40% 1 13.11.2026 -
Nazareno Colombo Racing Club Active 122 / 121 40% 2 12.11.2026 -
Jesús Angulo Tigres Active 131 / 137 40% 1 12.11.2026 -
Gerardo Arteaga Monterrey Active 122 / 131 40% 1 12.11.2026 -
Omar Campos Cruz Azul Active 117 / 124 40% 1 10.11.2026 -
Facundo Vila Estudiantes Active 107 / 106 40% 2 08.11.2026 -
Pablo Bennevendo Pumas UNAM Active 115 / 121 40% 1 08.11.2026 -
Aarón Mejía Tijuana Active 114 / 119 40% 1 08.11.2026 -
Richard Ledezma Guadalajara Active 140 / 124 40% 2 05.11.2026 -
Gabriel Neves Estudiantes Active 134 / 124 40% 1 05.11.2026 -
Leandro Lozano Boca Juniors Active 131 / 116 40% 1 05.11.2026 -
Jhohan Romaña Leon Active 127 / 138 40% 1 04.11.2026 -
Strahinja Manojlović Radnicki Nis Active 113 / 119 40% 1 03.11.2026 -
Killian Cahill Leyton Orient Active 107 / 88 40% 4 02.11.2026 -
Santiago Núñez Estudiantes Active 122 / 123 40% 2 02.11.2026 -
Manuel Capasso Atlas Active 130 / 115 40% 1 02.11.2026 -
Radek Vítek Middlesbrough Active 143 / 134 40% 1 31.10.2026 -
Sebastián Jaume Albion Active 91 / 107 40% 2 27.10.2026 -
Robin Roefs Sunderland Active 153 / 125 40% 1 26.10.2026 -
Lautaro Bursich Talleres Active 95 / 91 40% 2 25.10.2026 -
Jesús Orozco Chiquete Cruz Azul Active 132 / 139 40% 2 25.10.2026 -
Franco Ibarra Rosario Central Active 128 / 126 40% 1 25.10.2026 -
Laureano Martínez Talleres Active 101 / 100 40% 1 24.10.2026 -
Siro Rosané Estudiantes Active 121 / 108 40% 1 22.10.2026 -
José Florentín Independiente Rivadavia Active 129 / 115 40% 1 22.10.2026 -
Nahuel Galardi Maipú Active 112 / 119 40% 1 20.10.2026 -
Ángel Maciel Tacuarembo Active 103 / 102 40% 1 20.10.2026 -
Jherson Mosquera Newell's Old Boys Active 130 / 115 40% 1 19.10.2026 -
Adalberto Carrasquilla Pumas UNAM Active 128 / 137 40% 1 17.10.2026 -
Nicolás Paz San Martín SJ Active 126 / 122 40% 1 17.10.2026 -
Santiago Simón Toluca Active 116 / 112 40% 1 09.10.2026 -
Daniel Herrera San Lorenzo Active 125 / 116 40% 1 09.10.2026 -
Augusto Schott Talleres Active 117 / 132 40% 1 09.10.2026 -
Vicente Poggi Godoy Cruz Active 125 / 132 40% 1 08.10.2026 -
Bruno Antúnez Boston River Active 108 / 121 40% 1 06.10.2026 -
Juan Carlos Portillo River Plate Active 126 / 128 40% 1 05.10.2026 -
Felipe Peña Biafore Lanús Active 121 / 127 40% 1 05.10.2026 -
John Amah Plateau United Active 87 / 104 40% 1 26.09.2026 -
Vincent Edafe Warri Wolves Active 88 / 107 40% 1 10.09.2026 -
Ángel Espínola Sportivo Luqueno Active 95 / 112 40% 3 09.09.2026 -
Facundo Miño Deportivo Riestra Active 120 / 131 40% 1 09.09.2026 -
Víctor Guzmán Monterrey Active 138 / 137 40% 1 09.09.2026 -
Isaac Boehmer Vancouver Whitecaps Active 97 / 109 40% 1 02.09.2026 -
Franco Herrera Viitorul Active 97 / 114 40% 2 15.08.2026 -
Iván Alejo Valladolid Active 119 / 110 40% 1 02.08.2026 -
Joaquín Canadell Quilmes Active 101 / 102 40% 1 02.08.2026 -